Aguilar, Colorado
Current Conditions -  °F | °C
As of 9:54 PM on Sunday 23 Nov 2014 (Local Time) from KTAD Reporting Station
Light Snow Light Snow  
Wind Chill: 22°   Ceiling: 1500
Heat Index: 29°   Visibility: 5mi
Dew Point: 26°   Wind: 7mph
Humidity: 89%   Direction: 330°NNW
Pressure: 29.96"   Gusts: NA
Location:  37.4°N, 104.65°W
Report Text: KTAD 240454Z AUTO 33006KT 5SM -SN BR BKN015 OVC038 M02/M03 A2996 RMK AO2 SLP156 P0000 T10171033
Loading
Personal Weather Stations






























Interactive Weather Map New forecast layout! Learn more

10-Day Weather Forecast

Advertisements
Track Severe Weather on mobile